createdAt,value
2023-04-20T00:02:03.830Z,17.77
2023-04-20T00:04:32.162Z,17.67
2023-04-20T00:07:00.534Z,17.56
2023-04-20T00:09:29.455Z,17.48
2023-04-20T00:11:57.762Z,17.50
2023-04-20T00:14:26.285Z,17.54
2023-04-20T00:16:54.610Z,17.46
2023-04-20T00:19:23.164Z,17.46
2023-04-20T00:21:51.418Z,17.45
2023-04-20T00:24:19.695Z,17.39
2023-04-20T00:26:48.314Z,17.30
2023-04-20T00:29:16.902Z,17.24
2023-04-20T00:31:45.344Z,17.19
2023-04-20T00:34:13.692Z,17.18
2023-04-20T00:36:42.071Z,17.21
2023-04-20T00:39:10.738Z,17.28
2023-04-20T00:41:39.090Z,17.27
2023-04-20T00:44:14.792Z,17.15
2023-04-20T00:46:43.106Z,17.06
2023-04-20T00:49:11.618Z,17.02
2023-04-20T00:51:40.232Z,17.02
2023-04-20T00:54:08.542Z,16.95
2023-04-20T00:56:36.781Z,16.90
2023-04-20T00:59:05.037Z,16.90
2023-04-20T01:01:33.413Z,16.83
2023-04-20T01:04:01.705Z,16.76
2023-04-20T01:06:29.963Z,16.68
2023-04-20T01:08:58.180Z,16.65
2023-04-20T01:11:26.392Z,16.59
2023-04-20T01:13:54.568Z,16.55
2023-04-20T01:16:23.952Z,16.54
2023-04-20T01:18:52.688Z,16.47
2023-04-20T01:21:24.625Z,16.45
2023-04-20T01:23:52.871Z,16.45
2023-04-20T01:26:23.212Z,16.44
2023-04-20T01:28:51.513Z,16.42
2023-04-20T01:31:23.575Z,16.37
2023-04-20T01:33:52.401Z,16.26
2023-04-20T01:36:20.781Z,16.15
2023-04-20T01:38:49.340Z,16.08
2023-04-20T01:41:17.654Z,16.06
2023-04-20T01:43:46.017Z,16.06
2023-04-20T01:46:14.388Z,16.02
2023-04-20T01:48:42.646Z,15.91
2023-04-20T01:51:10.844Z,15.80
2023-04-20T01:53:39.124Z,15.68
2023-04-20T01:56:07.694Z,15.59
2023-04-20T01:58:36.565Z,15.53
2023-04-20T02:01:04.812Z,15.47
2023-04-20T02:03:33.225Z,15.45
2023-04-20T02:06:01.655Z,15.46
2023-04-20T02:08:29.952Z,15.41
2023-04-20T02:10:58.195Z,15.28
2023-04-20T02:13:26.504Z,15.21
2023-04-20T02:15:54.892Z,15.14
2023-04-20T02:18:23.506Z,15.09
2023-04-20T02:20:51.730Z,15.00
2023-04-20T02:23:19.889Z,14.93
2023-04-20T02:25:48.464Z,14.89
2023-04-20T02:28:16.682Z,14.84
2023-04-20T02:30:44.979Z,14.76
2023-04-20T02:33:13.601Z,14.66
2023-04-20T02:35:41.777Z,14.58
2023-04-20T02:38:10.021Z,14.48
2023-04-20T02:40:38.222Z,14.38
2023-04-20T02:43:06.444Z,14.29
2023-04-20T02:45:34.674Z,14.22
2023-04-20T02:48:02.872Z,14.15
2023-04-20T02:50:32.114Z,14.07
2023-04-20T02:53:00.343Z,14.01
2023-04-20T02:55:28.558Z,13.90
2023-04-20T02:57:56.711Z,13.85
2023-04-20T03:00:25.090Z,13.80
2023-04-20T03:02:53.515Z,13.74
2023-04-20T03:05:21.840Z,13.69
2023-04-20T03:07:50.024Z,13.66
2023-04-20T03:10:18.239Z,13.65
2023-04-20T03:12:46.548Z,13.59
2023-04-20T03:15:16.451Z,13.55
2023-04-20T03:17:44.766Z,13.52
2023-04-20T03:20:14.197Z,13.50
2023-04-20T03:22:42.408Z,13.48
2023-04-20T03:25:10.720Z,13.47
2023-04-20T03:27:38.886Z,13.42
2023-04-20T03:30:07.951Z,13.41
2023-04-20T03:32:36.262Z,13.37
2023-04-20T03:35:04.527Z,13.31
2023-04-20T03:37:32.685Z,13.27
2023-04-20T03:40:00.877Z,13.24
2023-04-20T03:42:29.101Z,13.21
2023-04-20T03:44:57.898Z,13.20
2023-04-20T03:47:26.245Z,13.16
2023-04-20T03:49:54.415Z,13.07
2023-04-20T03:52:22.623Z,13.02
2023-04-20T03:54:50.840Z,12.98
2023-04-20T03:57:19.048Z,12.93
2023-04-20T03:59:47.480Z,12.89
2023-04-20T04:02:16.641Z,12.84
2023-04-20T04:04:46.193Z,12.82
2023-04-20T04:07:14.460Z,12.78
2023-04-20T04:09:42.784Z,12.77
2023-04-20T04:12:11.133Z,12.73
2023-04-20T04:14:39.312Z,12.70
2023-04-20T04:17:08.801Z,12.64
2023-04-20T04:19:37.106Z,12.59
2023-04-20T04:22:05.288Z,12.57
2023-04-20T04:24:34.246Z,12.60
2023-04-20T04:27:06.032Z,12.57
2023-04-20T04:29:39.369Z,12.54
2023-04-20T04:32:07.625Z,12.49
2023-04-20T04:34:36.408Z,12.46
2023-04-20T04:37:04.762Z,12.43
2023-04-20T04:39:33.002Z,12.37
2023-04-20T04:42:02.495Z,12.32
2023-04-20T04:44:32.720Z,12.31
2023-04-20T04:47:00.987Z,12.32
2023-04-20T04:49:30.299Z,12.34
2023-04-20T04:51:58.488Z,12.31
2023-04-20T04:54:26.634Z,12.30
2023-04-20T04:56:54.925Z,12.29
2023-04-20T04:59:23.220Z,12.29
2023-04-20T05:01:51.545Z,12.30
2023-04-20T05:04:19.914Z,12.29
2023-04-20T05:06:48.351Z,12.29
2023-04-20T05:09:17.192Z,12.27
2023-04-20T05:11:45.887Z,12.22
2023-04-20T05:14:14.053Z,12.18
2023-04-20T05:16:42.460Z,12.16
2023-04-20T05:19:10.696Z,12.17
2023-04-20T05:21:40.092Z,12.16
2023-04-20T05:24:08.382Z,12.11
2023-04-20T05:26:36.639Z,12.12
2023-04-20T05:29:04.929Z,12.11
2023-04-20T05:31:34.309Z,12.09
2023-04-20T05:34:03.716Z,12.09
2023-04-20T05:36:34.575Z,12.08
2023-04-20T05:39:02.837Z,12.05
2023-04-20T05:41:31.367Z,12.04
2023-04-20T05:43:59.660Z,12.03
2023-04-20T05:46:28.526Z,12.05
2023-04-20T05:48:57.273Z,12.05
2023-04-20T05:51:29.810Z,12.02
2023-04-20T05:53:58.141Z,12.03
2023-04-20T05:56:26.660Z,12.03
2023-04-20T05:58:56.362Z,12.02
2023-04-20T06:01:24.596Z,12.00
2023-04-20T06:03:53.289Z,11.99
2023-04-20T06:06:21.759Z,11.98
2023-04-20T06:08:51.729Z,11.96
2023-04-20T06:11:20.100Z,11.94
2023-04-20T06:13:48.464Z,11.91
2023-04-20T06:16:16.984Z,11.84
2023-04-20T06:18:45.383Z,11.79
2023-04-20T06:21:13.940Z,11.75
2023-04-20T06:23:42.227Z,11.70
2023-04-20T06:26:11.182Z,11.70
2023-04-20T06:28:39.566Z,11.68
2023-04-20T06:31:08.088Z,11.66
2023-04-20T06:33:36.541Z,11.62
2023-04-20T06:36:09.200Z,11.60
2023-04-20T06:38:37.584Z,11.59
2023-04-20T06:41:05.945Z,11.58
2023-04-20T06:43:34.197Z,11.54
2023-04-20T06:46:02.444Z,11.47
2023-04-20T06:48:32.781Z,11.42
2023-04-20T06:51:02.811Z,11.40
2023-04-20T06:53:31.092Z,11.38
2023-04-20T06:55:59.379Z,11.37
2023-04-20T06:58:27.670Z,11.35
2023-04-20T07:00:55.949Z,11.31
2023-04-20T07:03:25.156Z,11.24
2023-04-20T07:05:53.517Z,11.15
2023-04-20T07:08:21.875Z,11.08
2023-04-20T07:10:50.196Z,11.05
2023-04-20T07:13:18.578Z,11.00
2023-04-20T07:15:47.617Z,10.97
2023-04-20T07:18:15.865Z,10.94
2023-04-20T07:20:44.211Z,10.90
2023-04-20T07:23:12.521Z,10.88
2023-04-20T07:25:41.559Z,10.86
2023-04-20T07:28:09.815Z,10.83
2023-04-20T07:30:38.203Z,10.76
2023-04-20T07:33:06.642Z,10.72
2023-04-20T07:35:35.010Z,10.72
2023-04-20T07:38:03.409Z,10.71
2023-04-20T07:40:31.978Z,10.74
2023-04-20T07:43:00.219Z,10.74
2023-04-20T07:45:28.641Z,10.71
2023-04-20T07:47:58.152Z,10.68
2023-04-20T07:50:26.860Z,10.66
2023-04-20T07:52:55.255Z,10.62
2023-04-20T07:55:23.711Z,10.56
2023-04-20T07:57:52.364Z,10.48
2023-04-20T08:00:21.153Z,10.42
2023-04-20T08:02:49.548Z,10.36
2023-04-20T08:05:18.078Z,10.29
2023-04-20T08:07:47.206Z,10.23
2023-04-20T08:10:15.518Z,10.25
2023-04-20T08:12:43.905Z,10.22
2023-04-20T08:15:12.603Z,10.18
2023-04-20T08:17:40.974Z,10.13
2023-04-20T08:20:10.033Z,10.14
2023-04-20T08:22:38.974Z,10.11
2023-04-20T08:25:07.439Z,10.05
2023-04-20T08:27:36.816Z,10.02
2023-04-20T08:30:05.495Z,10.01
2023-04-20T08:32:33.866Z,9.99
2023-04-20T08:35:02.190Z,9.93
2023-04-20T08:37:32.527Z,9.87
2023-04-20T08:40:01.330Z,9.81
2023-04-20T08:42:29.593Z,9.79
2023-04-20T08:44:59.666Z,9.77
2023-04-20T08:47:30.175Z,9.77
2023-04-20T08:50:01.359Z,9.75
2023-04-20T08:52:29.629Z,9.72
2023-04-20T08:54:58.099Z,9.71
2023-04-20T08:57:27.216Z,9.67
2023-04-20T08:59:56.488Z,9.64
2023-04-20T09:02:24.938Z,9.58
2023-04-20T09:05:04.924Z,9.52
2023-04-20T09:07:33.516Z,9.49
2023-04-20T09:10:02.455Z,9.48
2023-04-20T09:12:41.777Z,9.47
2023-04-20T09:15:11.617Z,9.43
2023-04-20T09:17:41.968Z,9.38
2023-04-20T09:20:12.125Z,9.37
2023-04-20T09:22:44.178Z,9.36
2023-04-20T09:25:19.977Z,9.35
2023-04-20T09:28:02.832Z,9.32
2023-04-20T09:30:46.603Z,9.27
2023-04-20T09:33:15.516Z,9.22
2023-04-20T09:35:45.035Z,9.18
2023-04-20T09:38:17.945Z,9.15
2023-04-20T09:40:46.771Z,9.15
2023-04-20T09:43:24.372Z,9.16
2023-04-20T09:45:53.106Z,9.19
2023-04-20T09:48:22.679Z,9.20
2023-04-20T09:50:51.779Z,9.15
2023-04-20T09:53:20.843Z,9.10
2023-04-20T09:55:51.186Z,9.06
2023-04-20T09:58:23.979Z,8.98
2023-04-20T10:00:52.432Z,8.98
2023-04-20T10:03:22.595Z,8.93
2023-04-20T10:05:53.001Z,8.90
2023-04-20T10:08:21.786Z,8.89
2023-04-20T10:10:52.436Z,8.87
2023-04-20T10:13:22.635Z,8.87
2023-04-20T10:15:53.167Z,8.87
2023-04-20T10:18:25.755Z,8.84
2023-04-20T10:21:11.820Z,8.82
2023-04-20T10:23:53.483Z,8.76
2023-04-20T10:26:22.102Z,8.76
2023-04-20T10:28:50.699Z,8.75
2023-04-20T10:31:19.054Z,8.77
2023-04-20T10:33:57.336Z,8.75
2023-04-20T10:36:35.189Z,8.77
2023-04-20T10:39:23.866Z,8.75
2023-04-20T10:42:05.409Z,8.68
2023-04-20T10:44:35.397Z,8.63
2023-04-20T10:47:03.752Z,8.61
2023-04-20T10:49:33.083Z,8.56
2023-04-20T10:52:01.570Z,8.54
2023-04-20T10:54:39.789Z,8.55
2023-04-20T10:57:10.548Z,8.52
2023-04-20T10:59:39.908Z,8.49
2023-04-20T11:02:11.355Z,8.51
2023-04-20T11:04:39.682Z,8.50
2023-04-20T11:07:09.826Z,8.51
2023-04-20T11:09:39.294Z,8.51
2023-04-20T11:12:15.751Z,8.51
2023-04-20T11:14:55.346Z,8.48
2023-04-20T11:17:43.838Z,8.44
2023-04-20T11:20:15.310Z,8.46
2023-04-20T11:22:44.526Z,8.46
2023-04-20T11:25:13.801Z,8.45
2023-04-20T11:27:44.027Z,8.42
2023-04-20T11:30:12.608Z,8.38
2023-04-20T11:32:41.329Z,8.31
2023-04-20T11:35:11.780Z,8.26
2023-04-20T11:37:52.090Z,8.23
2023-04-20T11:40:20.500Z,8.17
2023-04-20T11:42:48.765Z,8.14
2023-04-20T11:45:17.187Z,8.16
2023-04-20T11:47:46.748Z,8.16
2023-04-20T11:50:15.324Z,8.13
2023-04-20T11:52:43.651Z,8.11
2023-04-20T11:55:12.371Z,8.12
2023-04-20T11:57:40.645Z,8.13
2023-04-20T12:00:09.748Z,8.14
2023-04-20T12:02:38.126Z,8.13
2023-04-20T12:05:07.034Z,8.09
2023-04-20T12:07:35.383Z,8.06
2023-04-20T12:10:04.890Z,8.02
2023-04-20T12:12:33.101Z,8.01
2023-04-20T12:15:01.412Z,8.01
2023-04-20T12:17:29.687Z,7.98
2023-04-20T12:19:58.789Z,7.95
2023-04-20T12:22:27.110Z,7.93
2023-04-20T12:24:55.353Z,7.96
2023-04-20T12:27:23.660Z,7.95
2023-04-20T12:29:51.988Z,7.91
2023-04-20T12:32:20.257Z,7.85
2023-04-20T12:34:48.695Z,7.82
2023-04-20T12:37:17.003Z,7.83
2023-04-20T12:39:45.325Z,7.82
2023-04-20T12:42:13.965Z,7.84
2023-04-20T12:44:42.333Z,7.83
2023-04-20T12:47:10.698Z,7.80
2023-04-20T12:49:39.017Z,7.80
2023-04-20T12:52:08.214Z,7.80
2023-04-20T12:54:36.558Z,7.77
2023-04-20T12:57:04.878Z,7.70
2023-04-20T12:59:33.111Z,7.65
2023-04-20T13:02:01.550Z,7.61
2023-04-20T13:04:30.151Z,7.59
2023-04-20T13:06:58.483Z,7.59
2023-04-20T13:09:27.891Z,7.58
2023-04-20T13:11:56.311Z,7.54
2023-04-20T13:14:24.666Z,7.53
2023-04-20T13:16:55.197Z,7.56
2023-04-20T13:19:24.051Z,7.58
2023-04-20T13:21:52.315Z,7.59
2023-04-20T13:24:20.753Z,7.62
2023-04-20T13:26:49.852Z,7.63
2023-04-20T13:29:18.260Z,7.58
2023-04-20T13:31:48.419Z,7.56
2023-04-20T13:34:17.185Z,7.55
2023-04-20T13:36:46.667Z,7.58
2023-04-20T13:39:15.197Z,7.59
2023-04-20T13:41:43.778Z,7.60
2023-04-20T13:44:16.854Z,7.56
2023-04-20T13:46:46.988Z,7.55
2023-04-20T13:49:17.620Z,7.56
2023-04-20T13:51:45.902Z,7.61
2023-04-20T13:54:14.201Z,7.63
2023-04-20T13:56:42.640Z,7.65
2023-04-20T13:59:10.989Z,7.68
2023-04-20T14:01:39.868Z,7.70
2023-04-20T14:04:09.982Z,7.72
2023-04-20T14:06:39.555Z,7.76
2023-04-20T14:09:08.027Z,7.80
2023-04-20T14:11:36.357Z,7.83
2023-04-20T14:14:04.728Z,7.88
2023-04-20T14:16:33.019Z,7.94
2023-04-20T14:19:01.798Z,8.02
2023-04-20T14:21:30.030Z,8.10
2023-04-20T14:23:58.464Z,8.16
2023-04-20T14:26:28.344Z,8.22
2023-04-20T14:28:56.833Z,8.29
2023-04-20T14:31:25.410Z,8.35
2023-04-20T14:33:53.728Z,8.42
2023-04-20T14:36:21.980Z,8.51
2023-04-20T14:38:50.240Z,8.60
2023-04-20T14:41:18.553Z,8.70
2023-04-20T14:43:46.844Z,8.86
2023-04-20T14:46:15.220Z,8.98
2023-04-20T14:48:47.043Z,9.11
2023-04-20T14:51:16.992Z,9.23
2023-04-20T14:53:45.353Z,9.36
2023-04-20T14:56:13.906Z,9.51
2023-04-20T14:58:43.226Z,9.65
2023-04-20T15:01:12.172Z,9.80
2023-04-20T15:03:40.755Z,9.95
2023-04-20T15:06:09.459Z,10.06
2023-04-20T15:08:37.724Z,10.18
2023-04-20T15:11:06.586Z,10.29
2023-04-20T15:13:34.880Z,10.41
2023-04-20T15:16:03.198Z,10.56
2023-04-20T15:18:31.555Z,10.67
2023-04-20T15:20:59.919Z,10.77
2023-04-20T15:23:30.779Z,10.87
2023-04-20T15:25:59.003Z,11.01
2023-04-20T15:28:27.343Z,11.12
2023-04-20T15:30:55.771Z,11.23
2023-04-20T15:33:24.107Z,11.34
2023-04-20T15:35:52.473Z,11.39
2023-04-20T15:38:20.822Z,11.50
2023-04-20T15:40:49.347Z,11.59
2023-04-20T15:43:17.818Z,11.68
2023-04-20T15:45:46.339Z,11.81
2023-04-20T15:48:14.793Z,11.91
2023-04-20T15:50:43.120Z,12.01
2023-04-20T15:53:11.430Z,12.08
2023-04-20T15:55:40.653Z,12.17
2023-04-20T15:58:08.943Z,12.26
2023-04-20T16:00:37.542Z,12.35
2023-04-20T16:03:06.035Z,12.41
2023-04-20T16:05:34.691Z,12.48
2023-04-20T16:08:03.088Z,12.57
2023-04-20T16:10:31.381Z,12.65
2023-04-20T16:12:59.646Z,12.74
2023-04-20T16:15:27.954Z,12.85
2023-04-20T16:17:56.277Z,12.92
2023-04-20T16:20:24.590Z,13.02
2023-04-20T16:22:52.908Z,13.12
2023-04-20T16:25:23.600Z,13.21
2023-04-20T16:27:52.617Z,13.29
2023-04-20T16:30:21.287Z,13.36
2023-04-20T16:32:50.195Z,13.44
2023-04-20T16:35:18.745Z,13.53
2023-04-20T16:37:47.717Z,13.57
2023-04-20T16:40:16.147Z,13.71
2023-04-20T16:42:44.460Z,13.87
2023-04-20T16:45:12.804Z,14.05
2023-04-20T16:47:41.482Z,14.23
2023-04-20T16:50:10.930Z,14.25
2023-04-20T16:52:39.210Z,14.24
2023-04-20T16:55:08.045Z,14.20
2023-04-20T16:57:36.779Z,14.18
2023-04-20T17:00:10.250Z,14.23
2023-04-20T17:02:39.019Z,14.34
2023-04-20T17:05:08.182Z,14.45
2023-04-20T17:07:37.859Z,14.60
2023-04-20T17:10:06.463Z,14.74
2023-04-20T17:12:34.753Z,14.85
2023-04-20T17:15:03.387Z,14.98
2023-04-20T17:17:31.758Z,15.02
2023-04-20T17:20:00.180Z,15.09
2023-04-20T17:22:28.536Z,15.13
2023-04-20T17:24:56.781Z,15.18
2023-04-20T17:27:25.091Z,15.30
2023-04-20T17:29:53.431Z,15.37
2023-04-20T17:32:21.738Z,15.44
2023-04-20T17:34:52.105Z,15.55
2023-04-20T17:37:20.682Z,15.62
2023-04-20T17:39:49.005Z,15.67
2023-04-20T17:42:18.657Z,15.76
2023-04-20T17:44:47.497Z,15.87
2023-04-20T17:47:18.554Z,15.97
2023-04-20T17:49:46.902Z,16.13
2023-04-20T17:52:20.189Z,16.24
2023-04-20T17:54:48.798Z,16.25
2023-04-20T17:57:17.254Z,16.31
2023-04-20T17:59:45.594Z,16.40
2023-04-20T18:02:14.619Z,16.47
2023-04-20T18:04:43.410Z,16.55
2023-04-20T18:07:13.958Z,16.65
2023-04-20T18:09:42.264Z,16.70
2023-04-20T18:12:13.826Z,16.83
2023-04-20T18:14:43.274Z,16.93
2023-04-20T18:17:11.591Z,16.97
2023-04-20T18:19:41.727Z,17.11
2023-04-20T18:22:10.070Z,17.21
2023-04-20T18:24:38.926Z,17.24
2023-04-20T18:27:07.223Z,17.26
2023-04-20T18:29:36.136Z,17.36
2023-04-20T18:32:04.676Z,17.51
2023-04-20T18:34:32.982Z,17.54
2023-04-20T18:37:01.346Z,17.58
2023-04-20T18:39:30.708Z,17.69
2023-04-20T18:41:59.057Z,17.76
2023-04-20T18:44:29.185Z,17.84
2023-04-20T18:46:57.653Z,17.95
2023-04-20T18:49:26.062Z,18.02
2023-04-20T18:51:54.460Z,18.12
2023-04-20T18:54:22.852Z,18.25
2023-04-20T18:56:51.303Z,18.43
2023-04-20T18:59:19.627Z,18.54
2023-04-20T19:01:49.040Z,18.59
2023-04-20T19:04:18.148Z,18.63
2023-04-20T19:06:46.827Z,18.67
2023-04-20T19:09:15.473Z,18.67
2023-04-20T19:11:43.873Z,18.67
2023-04-20T19:14:13.317Z,18.75
2023-04-20T19:16:41.710Z,18.90
2023-04-20T19:19:10.678Z,19.00
2023-04-20T19:21:38.953Z,19.11
2023-04-20T19:24:07.514Z,19.10
2023-04-20T19:26:35.873Z,19.12
2023-04-20T19:29:04.249Z,19.32
2023-04-20T19:31:38.694Z,19.50
2023-04-20T19:34:07.283Z,19.59
2023-04-20T19:36:36.260Z,19.68
2023-04-20T19:39:04.989Z,19.80
2023-04-20T19:41:33.236Z,19.92
2023-04-20T19:44:01.825Z,19.95
2023-04-20T19:46:30.138Z,20.01
2023-04-20T19:48:58.540Z,20.13
2023-04-20T19:51:26.994Z,20.29
2023-04-20T19:53:55.489Z,20.51
2023-04-20T19:56:23.767Z,20.76
2023-04-20T19:58:52.090Z,20.80
2023-04-20T20:01:20.982Z,20.96
2023-04-20T20:03:49.614Z,21.04
2023-04-20T20:06:18.084Z,20.97
2023-04-20T20:08:47.019Z,21.06
2023-04-20T20:11:15.448Z,21.15
2023-04-20T20:13:43.738Z,21.21
2023-04-20T20:16:13.105Z,21.21
2023-04-20T20:18:41.412Z,21.29
2023-04-20T20:23:37.776Z,21.30
2023-04-20T20:26:06.190Z,21.32
2023-04-20T20:28:34.486Z,21.43
2023-04-20T20:31:02.814Z,21.53
2023-04-20T20:33:31.300Z,21.65
2023-04-20T20:35:59.560Z,21.78
2023-04-20T20:38:31.793Z,21.88
2023-04-20T20:41:00.538Z,21.90
2023-04-20T20:43:29.470Z,22.09
2023-04-20T20:45:57.744Z,22.20
2023-04-20T20:48:26.206Z,22.31
2023-04-20T20:50:54.438Z,22.40
2023-04-20T20:53:22.706Z,22.49
2023-04-20T20:55:51.023Z,22.57
2023-04-20T20:58:19.314Z,22.79
2023-04-20T21:00:48.059Z,22.96
2023-04-20T21:03:16.688Z,22.98
2023-04-20T21:05:45.186Z,23.17
2023-04-20T21:08:13.824Z,23.31
2023-04-20T21:10:42.092Z,23.31
2023-04-20T21:13:10.477Z,23.42
2023-04-20T21:15:38.732Z,23.63
2023-04-20T21:18:07.239Z,23.75
2023-04-20T21:20:35.563Z,23.88
2023-04-20T21:23:03.890Z,23.87
2023-04-20T21:25:32.177Z,23.86
2023-04-20T21:28:00.496Z,23.99
2023-04-20T21:30:29.217Z,24.10
2023-04-20T21:32:57.573Z,24.03
2023-04-20T21:35:25.962Z,24.11
2023-04-20T21:37:54.278Z,24.19
2023-04-20T21:40:23.576Z,24.32
2023-04-20T21:42:51.910Z,24.40
2023-04-20T21:45:20.214Z,24.44
2023-04-20T21:47:48.850Z,24.52
2023-04-20T21:50:17.282Z,24.42
2023-04-20T21:52:45.552Z,24.47
2023-04-20T21:55:14.054Z,24.56
2023-04-20T21:57:42.330Z,24.52
2023-04-20T22:00:11.230Z,24.51
2023-04-20T22:02:39.649Z,24.64
2023-04-20T22:05:09.576Z,24.78
2023-04-20T22:07:37.993Z,24.92
2023-04-20T22:10:07.815Z,25.01
2023-04-20T22:12:41.142Z,25.17
2023-04-20T22:15:14.929Z,25.03
2023-04-20T22:17:46.448Z,24.91
2023-04-20T22:20:17.775Z,24.90
2023-04-20T22:22:46.570Z,24.95
2023-04-20T22:25:14.908Z,25.04
2023-04-20T22:27:43.255Z,25.08
2023-04-20T22:30:11.788Z,24.99
2023-04-20T22:32:40.162Z,24.89
2023-04-20T22:35:08.886Z,24.88
2023-04-20T22:37:37.332Z,24.94
2023-04-20T22:40:09.120Z,24.92
2023-04-20T22:42:37.422Z,24.88
2023-04-20T22:45:06.806Z,24.88
2023-04-20T22:47:35.069Z,24.84
2023-04-20T22:50:04.097Z,24.65
2023-04-20T22:52:32.865Z,24.48
2023-04-20T22:55:01.657Z,24.40
2023-04-20T22:57:29.940Z,24.33
2023-04-20T22:59:58.386Z,24.30
2023-04-20T23:02:27.732Z,24.04
2023-04-20T23:04:56.719Z,23.85
2023-04-20T23:07:25.096Z,23.64
2023-04-20T23:09:54.616Z,23.65
2023-04-20T23:12:23.001Z,23.55
2023-04-20T23:14:51.636Z,23.29
2023-04-20T23:17:19.909Z,23.06
2023-04-20T23:19:48.428Z,22.90
2023-04-20T23:22:16.770Z,22.81
2023-04-20T23:24:45.047Z,22.70
2023-04-20T23:27:13.315Z,22.54
2023-04-20T23:29:42.355Z,22.37
2023-04-20T23:32:10.788Z,22.22
2023-04-20T23:34:39.130Z,22.09
2023-04-20T23:37:07.418Z,21.89
2023-04-20T23:39:39.765Z,21.69
2023-04-20T23:42:08.182Z,21.58
2023-04-20T23:44:36.497Z,21.53
2023-04-20T23:47:04.855Z,21.54
2023-04-20T23:49:33.102Z,21.51
2023-04-20T23:52:01.462Z,21.50
2023-04-20T23:54:31.206Z,21.45
2023-04-20T23:57:00.902Z,21.17
2023-04-20T23:59:29.148Z,20.91
